createdAt,value
2023-01-28T00:01:18.173Z,103017.27
2023-01-28T00:04:08.536Z,103016.94
2023-01-28T00:06:58.751Z,103026.26
2023-01-28T00:09:49.261Z,103030.92
2023-01-28T00:12:39.779Z,103032.10
2023-01-28T00:15:30.240Z,103026.95
2023-01-28T00:18:21.248Z,103023.40
2023-01-28T00:21:13.170Z,103018.85
2023-01-28T00:24:23.775Z,103010.66
2023-01-28T00:27:14.272Z,103011.70
2023-01-28T00:30:04.989Z,103003.04
2023-01-28T00:32:56.955Z,103001.95
2023-01-28T00:35:47.245Z,103006.54
2023-01-28T00:38:39.741Z,103005.36
2023-01-28T00:41:31.138Z,103007.52
2023-01-28T00:44:22.655Z,103018.92
2023-01-28T00:47:13.071Z,103026.83
2023-01-28T00:50:03.607Z,103022.00
2023-01-28T00:52:55.349Z,103020.42
2023-01-28T00:55:46.053Z,103015.86
2023-01-28T00:58:36.710Z,103004.76
2023-01-28T01:01:31.519Z,102988.88
2023-01-28T01:04:27.032Z,102984.17
2023-01-28T01:07:18.331Z,102985.96
2023-01-28T01:10:11.895Z,102985.45
2023-01-28T01:13:02.451Z,102983.33
2023-01-28T01:16:02.270Z,102978.98
2023-01-28T01:18:54.065Z,102972.86
2023-01-28T01:21:44.545Z,102965.21
2023-01-28T01:24:36.744Z,102963.05
2023-01-28T01:27:26.816Z,102964.98
2023-01-28T01:30:17.846Z,102964.95
2023-01-28T01:33:08.427Z,102964.27
2023-01-28T01:35:58.946Z,102963.03
2023-01-28T01:38:53.927Z,102958.85
2023-01-28T01:41:44.799Z,102955.93
2023-01-28T01:44:57.131Z,102957.55
2023-01-28T01:47:49.521Z,102955.61
2023-01-28T01:50:41.290Z,102958.56
2023-01-28T01:53:32.762Z,102960.95
2023-01-28T01:56:26.125Z,102963.29
2023-01-28T01:59:19.708Z,102963.52
2023-01-28T02:02:11.275Z,102961.23
2023-01-28T02:05:01.913Z,102960.88
2023-01-28T02:07:55.584Z,102964.55
2023-01-28T02:10:46.535Z,102967.38
2023-01-28T02:13:40.387Z,102975.35
2023-01-28T02:16:32.455Z,102989.17
2023-01-28T02:19:26.313Z,102993.31
2023-01-28T02:22:29.582Z,102992.13
2023-01-28T02:25:36.342Z,102990.24
2023-01-28T02:28:30.066Z,102992.20
2023-01-28T02:31:26.159Z,102992.37
2023-01-28T02:34:20.131Z,102996.95
2023-01-28T02:37:14.147Z,102998.13
2023-01-28T02:40:07.501Z,103004.42
2023-01-28T02:42:58.025Z,103013.91
2023-01-28T02:46:06.455Z,103016.67
2023-01-28T02:48:56.996Z,103011.48
2023-01-28T02:51:54.379Z,103003.32
2023-01-28T02:54:49.405Z,102996.20
2023-01-28T02:57:45.739Z,102984.61
2023-01-28T03:00:41.489Z,102977.63
2023-01-28T03:03:36.328Z,102975.75
2023-01-28T03:06:30.104Z,102967.36
2023-01-28T03:09:27.041Z,102964.14
2023-01-28T03:12:37.923Z,102969.21
2023-01-28T03:15:48.111Z,102962.17
2023-01-28T03:18:59.001Z,102951.65
2023-01-28T03:22:08.248Z,102939.79
2023-01-28T03:25:17.267Z,102937.46
2023-01-28T03:28:27.949Z,102937.08
2023-01-28T03:31:39.089Z,102934.09
2023-01-28T03:34:47.142Z,102939.70
2023-01-28T03:37:39.167Z,102947.70
2023-01-28T03:40:38.099Z,102957.55
2023-01-28T03:43:29.706Z,102973.05
2023-01-28T03:46:20.490Z,102974.44
2023-01-28T03:49:11.020Z,102970.16
2023-01-28T03:52:01.566Z,102955.81
2023-01-28T03:54:53.188Z,102940.80
2023-01-28T03:57:45.179Z,102937.00
2023-01-28T04:00:42.220Z,102945.17
2023-01-28T04:03:33.184Z,102950.88
2023-01-28T04:06:29.113Z,102953.04
2023-01-28T04:09:19.696Z,102959.78
2023-01-28T04:12:27.568Z,102960.92
2023-01-28T04:15:20.317Z,102964.59
2023-01-28T04:18:13.343Z,102968.09
2023-01-28T04:21:05.301Z,102962.98
2023-01-28T04:23:55.950Z,102958.39
2023-01-28T04:26:46.989Z,102960.10
2023-01-28T04:29:38.460Z,102957.17
2023-01-28T04:32:51.193Z,102948.05
2023-01-28T04:35:52.555Z,102944.39
2023-01-28T04:38:57.439Z,102946.91
2023-01-28T04:41:56.898Z,102945.40
2023-01-28T04:45:01.350Z,102936.16
2023-01-28T04:48:10.595Z,102941.88
2023-01-28T04:51:30.866Z,102949.80
2023-01-28T04:54:33.175Z,102954.45
2023-01-28T04:57:27.263Z,102965.02
2023-01-28T05:00:18.785Z,102972.18
2023-01-28T05:03:09.431Z,102971.36
2023-01-28T05:06:00.026Z,102970.90
2023-01-28T05:09:00.562Z,102967.11
2023-01-28T05:11:51.322Z,102971.09
2023-01-28T05:14:42.366Z,102974.72
2023-01-28T05:17:44.395Z,102982.93
2023-01-28T05:20:36.285Z,102976.60
2023-01-28T05:23:27.518Z,102977.95
2023-01-28T05:26:22.851Z,102985.05
2023-01-28T05:29:33.181Z,102983.98
2023-01-28T05:32:23.640Z,102985.23
2023-01-28T05:35:14.822Z,102988.85
2023-01-28T05:38:05.655Z,102990.52
2023-01-28T05:40:56.762Z,102990.63
2023-01-28T05:43:47.530Z,102991.96
2023-01-28T05:46:58.048Z,102997.53
2023-01-28T05:50:08.170Z,102994.84
2023-01-28T05:53:08.228Z,102991.92
2023-01-28T05:56:00.022Z,102987.67
2023-01-28T05:58:51.377Z,102980.63
2023-01-28T06:01:42.237Z,102970.80
2023-01-28T06:04:32.587Z,102967.89
2023-01-28T06:07:24.231Z,102965.54
2023-01-28T06:10:15.132Z,102967.96
2023-01-28T06:13:08.650Z,102967.70
2023-01-28T06:16:28.602Z,102968.11
2023-01-28T06:19:27.699Z,102974.80
2023-01-28T06:22:19.963Z,102969.94
2023-01-28T06:25:11.205Z,102965.37
2023-01-28T06:28:01.859Z,102959.08
2023-01-28T06:30:52.620Z,102954.76
2023-01-28T06:33:43.231Z,102957.87
2023-01-28T06:36:33.640Z,102957.94
2023-01-28T06:39:24.308Z,102958.91
2023-01-28T06:42:15.080Z,102958.02
2023-01-28T06:45:05.686Z,102959.02
2023-01-28T06:47:56.247Z,102963.80
2023-01-28T06:50:47.828Z,102960.30
2023-01-28T06:53:38.549Z,102966.89
2023-01-28T06:56:28.832Z,102969.91
2023-01-28T06:59:19.195Z,102963.94
2023-01-28T07:02:11.197Z,102962.84
2023-01-28T07:05:02.560Z,102961.38
2023-01-28T07:07:53.275Z,102955.63
2023-01-28T07:10:44.502Z,102955.86
2023-01-28T07:13:35.022Z,102958.91
2023-01-28T07:16:25.323Z,102955.77
2023-01-28T07:19:16.198Z,102953.45
2023-01-28T07:22:06.752Z,102956.41
2023-01-28T07:24:59.139Z,102955.46
2023-01-28T07:27:51.059Z,102953.31
2023-01-28T07:30:41.219Z,102953.88
2023-01-28T07:33:31.667Z,102958.86
2023-01-28T07:36:22.171Z,102963.55
2023-01-28T07:39:12.602Z,102962.48
2023-01-28T07:42:03.256Z,102960.53
2023-01-28T07:44:58.795Z,102959.83
2023-01-28T07:47:55.987Z,102951.70
2023-01-28T07:50:48.675Z,102947.23
2023-01-28T07:53:39.125Z,102943.27
2023-01-28T07:56:31.934Z,102940.89
2023-01-28T07:59:22.381Z,102947.37
2023-01-28T08:02:14.096Z,102951.41
2023-01-28T08:05:04.932Z,102955.50
2023-01-28T08:07:55.686Z,102960.10
2023-01-28T08:10:46.795Z,102962.13
2023-01-28T08:13:37.509Z,102968.58
2023-01-28T08:16:28.832Z,102975.52
2023-01-28T08:19:21.980Z,102977.67
2023-01-28T08:22:13.201Z,102978.84
2023-01-28T08:25:03.584Z,102985.46
2023-01-28T08:27:54.648Z,102988.13
2023-01-28T08:30:45.115Z,102987.52
2023-01-28T08:33:35.530Z,102984.80
2023-01-28T08:36:25.964Z,102986.70
2023-01-28T08:39:16.187Z,102992.15
2023-01-28T08:42:08.165Z,102994.98
2023-01-28T08:44:58.681Z,102997.67
2023-01-28T08:47:55.410Z,102997.02
2023-01-28T08:50:48.659Z,102996.67
2023-01-28T08:53:39.149Z,102993.80
2023-01-28T08:56:30.595Z,102994.92
2023-01-28T08:59:21.927Z,102990.03
2023-01-28T09:02:29.250Z,102992.20
2023-01-28T09:05:23.341Z,102996.08
2023-01-28T09:08:14.650Z,102993.42
2023-01-28T09:11:05.271Z,102997.38
2023-01-28T09:13:55.903Z,102998.13
2023-01-28T09:16:46.436Z,102994.08
2023-01-28T09:19:37.692Z,102996.58
2023-01-28T09:22:28.213Z,103003.11
2023-01-28T09:25:18.781Z,103001.09
2023-01-28T09:28:09.298Z,103001.11
2023-01-28T09:31:03.973Z,102998.30
2023-01-28T09:33:57.391Z,102997.54
2023-01-28T09:36:48.833Z,102999.25
2023-01-28T09:39:39.500Z,102996.87
2023-01-28T09:42:38.859Z,102996.50
2023-01-28T09:48:45.467Z,102999.55
2023-01-28T09:51:38.107Z,103002.16
2023-01-28T09:54:31.777Z,103003.06
2023-01-28T09:57:24.111Z,103001.76
2023-01-28T10:00:18.867Z,103001.90
2023-01-28T10:03:14.693Z,103001.79
2023-01-28T10:06:14.574Z,103006.85
2023-01-28T10:09:16.606Z,103010.37
2023-01-28T10:12:14.165Z,103019.01
2023-01-28T10:15:26.598Z,103023.54
2023-01-28T10:18:18.377Z,103028.02
2023-01-28T10:21:27.733Z,103029.92
2023-01-28T10:24:19.999Z,103041.59
2023-01-28T10:27:14.023Z,103038.77
2023-01-28T10:30:17.512Z,103042.67
2023-01-28T10:33:16.812Z,103041.05
2023-01-28T10:36:09.042Z,103040.57
2023-01-28T10:38:59.747Z,103041.57
2023-01-28T10:41:57.929Z,103047.46
2023-01-28T10:44:49.615Z,103055.56
2023-01-28T10:47:42.453Z,103057.08
2023-01-28T10:50:33.300Z,103051.46
2023-01-28T10:53:34.966Z,103046.13
2023-01-28T10:56:27.028Z,103041.80
2023-01-28T10:59:26.053Z,103043.95
2023-01-28T11:02:28.116Z,103042.48
2023-01-28T11:05:21.145Z,103037.35
2023-01-28T11:08:14.681Z,103033.58
2023-01-28T11:11:15.260Z,103025.88
2023-01-28T11:14:05.611Z,103017.58
2023-01-28T11:16:57.560Z,103012.14
2023-01-28T11:19:47.969Z,103008.41
2023-01-28T11:22:40.840Z,102998.33
2023-01-28T11:25:32.829Z,102986.27
2023-01-28T11:28:24.289Z,102982.86
2023-01-28T11:31:16.579Z,102975.96
2023-01-28T11:34:07.545Z,102971.61
2023-01-28T11:37:12.553Z,102968.55
2023-01-28T11:40:20.071Z,102962.24
2023-01-28T11:43:11.700Z,102956.63
2023-01-28T11:46:10.134Z,102959.55
2023-01-28T11:49:07.845Z,102964.19
2023-01-28T11:52:03.752Z,102967.08
2023-01-28T11:54:59.377Z,102972.90
2023-01-28T11:57:52.633Z,102974.18
2023-01-28T12:00:48.477Z,102971.35
2023-01-28T12:04:03.092Z,102968.85
2023-01-28T12:07:02.613Z,102968.29
2023-01-28T12:09:57.339Z,102965.96
2023-01-28T12:12:56.254Z,102967.75
2023-01-28T12:16:00.511Z,102967.23
2023-01-28T12:19:11.582Z,102964.54
2023-01-28T12:22:09.200Z,102963.36
2023-01-28T12:25:15.724Z,102966.16
2023-01-28T12:28:10.127Z,102964.09
2023-01-28T12:31:09.085Z,102954.95
2023-01-28T12:34:06.201Z,102952.89
2023-01-28T12:37:03.651Z,102949.30
2023-01-28T12:40:01.304Z,102940.48
2023-01-28T12:42:54.618Z,102931.62
2023-01-28T12:45:46.809Z,102925.96
2023-01-28T12:48:41.137Z,102926.59
2023-01-28T12:51:35.781Z,102923.42
2023-01-28T12:54:29.366Z,102922.05
2023-01-28T12:57:22.734Z,102918.63
2023-01-28T13:00:21.295Z,102914.05
2023-01-28T13:03:16.275Z,102909.13
2023-01-28T13:06:10.263Z,102908.17
2023-01-28T13:09:02.240Z,102907.39
2023-01-28T13:11:58.418Z,102905.33
2023-01-28T13:14:49.554Z,102903.97
2023-01-28T13:17:40.125Z,102898.20
2023-01-28T13:20:37.790Z,102898.34
2023-01-28T13:23:38.221Z,102900.40
2023-01-28T13:26:37.838Z,102899.58
2023-01-28T13:29:33.176Z,102895.91
2023-01-28T13:32:32.275Z,102888.83
2023-01-28T13:35:31.347Z,102890.44
2023-01-28T13:38:22.524Z,102889.84
2023-01-28T13:41:12.972Z,102884.18
2023-01-28T13:44:03.874Z,102884.70
2023-01-28T13:46:55.124Z,102882.84
2023-01-28T13:49:47.232Z,102883.21
2023-01-28T13:52:38.951Z,102885.30
2023-01-28T13:55:43.549Z,102884.27
2023-01-28T13:58:59.064Z,102876.45
2023-01-28T14:01:58.887Z,102871.08
2023-01-28T14:04:58.139Z,102864.54
2023-01-28T14:08:11.271Z,102856.39
2023-01-28T14:11:07.966Z,102849.91
2023-01-28T14:14:08.898Z,102848.52
2023-01-28T14:17:01.779Z,102846.36
2023-01-28T14:19:54.485Z,102846.51
2023-01-28T14:22:45.343Z,102841.52
2023-01-28T14:25:40.642Z,102849.06
2023-01-28T14:28:36.067Z,102849.95
2023-01-28T14:31:29.195Z,102845.13
2023-01-28T14:34:23.880Z,102844.54
2023-01-28T14:37:16.489Z,102848.70
2023-01-28T14:40:08.714Z,102851.17
2023-01-28T14:43:00.792Z,102847.52
2023-01-28T14:46:01.837Z,102849.73
2023-01-28T14:49:12.237Z,102852.32
2023-01-28T14:52:10.511Z,102859.30
2023-01-28T14:55:09.650Z,102865.96
2023-01-28T14:58:01.285Z,102869.97
2023-01-28T15:00:59.467Z,102866.11
2023-01-28T15:03:49.792Z,102866.79
2023-01-28T15:06:40.421Z,102869.96
2023-01-28T15:09:30.857Z,102871.81
2023-01-28T15:12:21.467Z,102876.03
2023-01-28T15:15:14.023Z,102886.65
2023-01-28T15:18:05.724Z,102886.77
2023-01-28T15:20:57.420Z,102884.52
2023-01-28T15:23:50.428Z,102889.32
2023-01-28T15:26:41.062Z,102888.41
2023-01-28T15:29:35.393Z,102889.31
2023-01-28T15:32:26.893Z,102890.59
2023-01-28T15:35:17.417Z,102893.36
2023-01-28T15:38:09.234Z,102893.70
2023-01-28T15:41:00.707Z,102890.86
2023-01-28T15:43:52.742Z,102884.91
2023-01-28T15:46:43.148Z,102885.33
2023-01-28T15:49:35.596Z,102890.27
2023-01-28T15:52:32.451Z,102887.65
2023-01-28T15:55:36.999Z,102882.38
2023-01-28T15:58:33.772Z,102885.17
2023-01-28T16:01:24.710Z,102882.30
2023-01-28T16:04:25.103Z,102878.52
2023-01-28T16:07:18.150Z,102877.27
2023-01-28T16:10:20.596Z,102882.05
2023-01-28T16:13:17.688Z,102885.34
2023-01-28T16:16:09.692Z,102886.91
2023-01-28T16:19:00.702Z,102890.50
2023-01-28T16:21:51.188Z,102885.79
2023-01-28T16:25:19.349Z,102881.10
2023-01-28T16:28:15.372Z,102876.99
2023-01-28T16:31:07.712Z,102874.23
2023-01-28T16:33:58.185Z,102873.66
2023-01-28T16:36:48.674Z,102868.00
2023-01-28T16:39:39.061Z,102868.05
2023-01-28T16:42:29.634Z,102866.89
2023-01-28T16:45:22.849Z,102862.68
2023-01-28T16:48:13.758Z,102860.20
2023-01-28T16:51:05.148Z,102860.03
2023-01-28T16:53:56.204Z,102862.70
2023-01-28T16:56:47.192Z,102862.00
2023-01-28T16:59:38.003Z,102859.31
2023-01-28T17:02:28.690Z,102860.88
2023-01-28T17:05:20.028Z,102866.90
2023-01-28T17:08:10.692Z,102869.17
2023-01-28T17:11:01.078Z,102877.65
2023-01-28T17:13:51.780Z,102884.16
2023-01-28T17:16:42.362Z,102884.25
2023-01-28T17:19:33.800Z,102884.77
2023-01-28T17:22:24.342Z,102890.60
2023-01-28T17:25:15.848Z,102894.61
2023-01-28T17:28:06.736Z,102894.88
2023-01-28T17:30:57.420Z,102895.00
2023-01-28T17:33:47.993Z,102900.12
2023-01-28T17:36:39.661Z,102900.52
2023-01-28T17:39:30.334Z,102904.15
2023-01-28T17:42:23.250Z,102902.05
2023-01-28T17:45:14.407Z,102900.28
2023-01-28T17:48:08.195Z,102900.40
2023-01-28T17:51:01.855Z,102901.23
2023-01-28T17:53:53.684Z,102896.95
2023-01-28T17:56:44.039Z,102892.43
2023-01-28T17:59:35.117Z,102893.48
2023-01-28T18:02:25.294Z,102897.34
2023-01-28T18:05:16.528Z,102905.48
2023-01-28T18:08:07.454Z,102904.38
2023-01-28T18:10:57.898Z,102907.78
2023-01-28T18:13:48.787Z,102905.02
2023-01-28T18:16:39.487Z,102899.68
2023-01-28T18:19:30.113Z,102892.11
2023-01-28T18:22:28.807Z,102893.20
2023-01-28T18:25:27.407Z,102894.79
2023-01-28T18:28:18.097Z,102897.52
2023-01-28T18:31:09.344Z,102897.54
2023-01-28T18:34:00.034Z,102895.19
2023-01-28T18:36:50.583Z,102893.15
2023-01-28T18:39:42.259Z,102890.92
2023-01-28T18:42:34.021Z,102891.09
2023-01-28T18:45:24.996Z,102901.57
2023-01-28T18:48:15.269Z,102908.10
2023-01-28T18:51:17.466Z,102910.20
2023-01-28T18:54:20.919Z,102910.61
2023-01-28T18:57:11.066Z,102901.41
2023-01-28T19:00:01.879Z,102900.42
2023-01-28T19:02:52.865Z,102901.89
2023-01-28T19:05:43.546Z,102902.73
2023-01-28T19:08:36.921Z,102901.02
2023-01-28T19:11:27.917Z,102895.09
2023-01-28T19:14:18.914Z,102890.23
2023-01-28T19:17:09.475Z,102888.73
2023-01-28T19:20:02.963Z,102885.01
2023-01-28T19:22:55.718Z,102881.67
2023-01-28T19:25:46.288Z,102878.69
2023-01-28T19:28:36.979Z,102872.42
2023-01-28T19:31:28.114Z,102867.86
2023-01-28T19:34:18.773Z,102863.45
2023-01-28T19:37:09.343Z,102862.45
2023-01-28T19:39:59.876Z,102860.36
2023-01-28T19:42:53.020Z,102860.22
2023-01-28T19:45:43.579Z,102864.25
2023-01-28T19:48:34.500Z,102867.40
2023-01-28T19:51:25.086Z,102866.61
2023-01-28T19:54:16.896Z,102869.87
2023-01-28T19:57:07.284Z,102863.52
2023-01-28T19:59:57.680Z,102854.70
2023-01-28T20:02:51.176Z,102854.56
2023-01-28T20:05:41.733Z,102848.33
2023-01-28T20:08:32.226Z,102853.27
2023-01-28T20:11:23.769Z,102860.21
2023-01-28T20:14:18.454Z,102858.48
2023-01-28T20:17:08.642Z,102852.75
2023-01-28T20:19:59.235Z,102853.48
2023-01-28T20:22:49.635Z,102847.94
2023-01-28T20:25:40.089Z,102845.36
2023-01-28T20:28:30.584Z,102844.27
2023-01-28T20:31:21.594Z,102842.02
2023-01-28T20:34:15.058Z,102836.65
2023-01-28T20:37:06.746Z,102838.89
2023-01-28T20:39:57.214Z,102839.70
2023-01-28T20:42:47.591Z,102835.70
2023-01-28T20:45:37.955Z,102836.48
2023-01-28T20:48:28.519Z,102837.66
2023-01-28T20:51:20.369Z,102837.03
2023-01-28T20:54:12.859Z,102836.14
2023-01-28T20:57:03.278Z,102834.37
2023-01-28T20:59:53.558Z,102834.38
2023-01-28T21:02:46.101Z,102837.13
2023-01-28T21:05:36.562Z,102832.91
2023-01-28T21:08:27.059Z,102827.39
2023-01-28T21:11:17.393Z,102829.34
2023-01-28T21:14:12.242Z,102832.28
2023-01-28T21:17:02.764Z,102826.06
2023-01-28T21:19:53.400Z,102829.09
2023-01-28T21:22:43.848Z,102828.89
2023-01-28T21:25:34.446Z,102825.42
2023-01-28T21:28:26.995Z,102824.73
2023-01-28T21:31:18.909Z,102819.61
2023-01-28T21:34:10.129Z,102816.79
2023-01-28T21:37:00.188Z,102812.91
2023-01-28T21:39:51.080Z,102812.85
2023-01-28T21:42:41.738Z,102822.43
2023-01-28T21:45:32.287Z,102830.97
2023-01-28T21:48:22.941Z,102830.40
2023-01-28T21:51:31.247Z,102827.73
2023-01-28T21:54:21.969Z,102821.65
2023-01-28T21:57:12.387Z,102823.14
2023-01-28T22:00:02.917Z,102824.90
2023-01-28T22:03:13.382Z,102820.77
2023-01-28T22:06:03.902Z,102822.14
2023-01-28T22:08:54.513Z,102820.42
2023-01-28T22:11:45.684Z,102824.75
2023-01-28T22:14:36.152Z,102820.64
2023-01-28T22:17:26.786Z,102820.80
2023-01-28T22:20:17.749Z,102820.63
2023-01-28T22:23:08.517Z,102822.10
2023-01-28T22:25:59.601Z,102821.27
2023-01-28T22:28:49.947Z,102821.43
2023-01-28T22:31:40.653Z,102822.36
2023-01-28T22:34:31.073Z,102823.81
2023-01-28T22:37:21.493Z,102818.34
2023-01-28T22:40:13.676Z,102818.80
2023-01-28T22:43:04.737Z,102820.28
2023-01-28T22:46:00.646Z,102822.65
2023-01-28T22:48:51.327Z,102827.49
2023-01-28T22:51:41.850Z,102829.63
2023-01-28T22:54:32.437Z,102825.55
2023-01-28T22:57:22.915Z,102826.25
2023-01-28T23:00:15.404Z,102821.45
2023-01-28T23:03:06.142Z,102822.45
2023-01-28T23:06:00.356Z,102816.90
2023-01-28T23:08:51.895Z,102817.42
2023-01-28T23:11:41.962Z,102823.48
2023-01-28T23:14:50.121Z,102826.42
2023-01-28T23:17:58.348Z,102825.68
2023-01-28T23:21:06.234Z,102825.67
2023-01-28T23:24:14.242Z,102822.41
2023-01-28T23:27:04.886Z,102818.08
2023-01-28T23:29:56.608Z,102810.15
2023-01-28T23:32:49.752Z,102811.54
2023-01-28T23:35:40.247Z,102807.67
2023-01-28T23:38:30.611Z,102803.73
2023-01-28T23:41:21.168Z,102799.75
2023-01-28T23:44:11.490Z,102799.98
2023-01-28T23:47:02.175Z,102802.22
2023-01-28T23:49:52.685Z,102804.92
2023-01-28T23:52:43.174Z,102805.23
2023-01-28T23:55:33.650Z,102791.93
2023-01-28T23:58:42.166Z,102788.09
